createdAt,value
2023-02-15T00:02:39.968Z,89.00
2023-02-15T00:08:49.855Z,89.80
2023-02-15T00:11:51.899Z,88.90
2023-02-15T00:14:55.463Z,88.90
2023-02-15T00:17:58.462Z,88.50
2023-02-15T00:21:05.223Z,88.60
2023-02-15T00:24:10.533Z,88.90
2023-02-15T00:27:12.654Z,88.80
2023-02-15T00:30:15.138Z,89.10
2023-02-15T00:33:17.159Z,89.10
2023-02-15T00:36:19.150Z,89.20
2023-02-15T00:39:24.248Z,89.00
2023-02-15T00:42:26.175Z,88.90
2023-02-15T00:45:28.263Z,88.70
2023-02-15T00:48:30.472Z,88.80
2023-02-15T00:51:33.988Z,89.20
2023-02-15T00:54:36.323Z,89.40
2023-02-15T00:57:39.101Z,89.40
2023-02-15T01:00:43.728Z,89.60
2023-02-15T01:03:46.118Z,89.20
2023-02-15T01:06:48.107Z,89.00
2023-02-15T01:09:50.083Z,88.70
2023-02-15T01:12:53.421Z,89.30
2023-02-15T01:15:58.317Z,89.50
2023-02-15T01:19:01.700Z,89.50
2023-02-15T01:22:03.740Z,88.90
2023-02-15T01:25:06.297Z,89.30
2023-02-15T01:28:08.566Z,89.00
2023-02-15T01:31:14.883Z,89.90
2023-02-15T01:34:16.973Z,89.70
2023-02-15T01:37:19.090Z,89.50
2023-02-15T01:40:21.691Z,89.70
2023-02-15T01:43:41.221Z,90.20
2023-02-15T01:46:50.992Z,90.40
2023-02-15T01:50:01.272Z,90.00
2023-02-15T01:53:11.154Z,90.00
2023-02-15T01:56:20.998Z,90.30
2023-02-15T01:59:25.758Z,90.20
2023-02-15T02:02:28.841Z,90.00
2023-02-15T02:05:31.765Z,90.00
2023-02-15T02:08:33.978Z,90.30
2023-02-15T02:11:41.748Z,90.50
2023-02-15T02:14:44.390Z,90.30
2023-02-15T02:18:13.085Z,89.50
2023-02-15T02:21:33.683Z,90.10
2023-02-15T02:25:11.946Z,90.00
2023-02-15T02:28:32.109Z,90.00
2023-02-15T02:31:47.774Z,89.40
2023-02-15T02:35:06.010Z,89.90
2023-02-15T02:38:33.771Z,89.70
2023-02-15T02:41:55.451Z,89.60
2023-02-15T02:45:20.728Z,89.40
2023-02-15T02:48:27.897Z,89.00
2023-02-15T02:51:30.595Z,89.40
2023-02-15T02:54:36.595Z,89.40
2023-02-15T02:57:51.470Z,89.40
2023-02-15T03:01:02.614Z,89.50
2023-02-15T03:04:17.072Z,89.40
2023-02-15T03:07:23.509Z,89.20
2023-02-15T03:10:26.902Z,88.40
2023-02-15T03:13:29.576Z,89.00
2023-02-15T03:16:32.291Z,89.50
2023-02-15T03:19:37.925Z,89.40
2023-02-15T03:22:47.554Z,89.10
2023-02-15T03:25:53.709Z,89.30
2023-02-15T03:29:01.447Z,89.10
2023-02-15T03:32:08.198Z,89.90
2023-02-15T03:35:10.634Z,89.00
2023-02-15T03:38:18.897Z,88.60
2023-02-15T03:41:23.458Z,89.20
2023-02-15T03:44:31.596Z,88.50
2023-02-15T03:47:40.016Z,88.30
2023-02-15T03:50:42.377Z,88.80
2023-02-15T03:53:47.452Z,89.10
2023-02-15T03:56:50.067Z,88.80
2023-02-15T03:59:52.304Z,88.50
2023-02-15T04:03:08.322Z,89.10
2023-02-15T04:06:10.383Z,89.20
2023-02-15T04:09:13.658Z,88.50
2023-02-15T04:12:16.014Z,88.30
2023-02-15T04:15:18.157Z,89.10
2023-02-15T04:18:20.165Z,88.90
2023-02-15T04:21:23.998Z,89.10
2023-02-15T04:24:25.935Z,89.80
2023-02-15T04:27:28.005Z,89.40
2023-02-15T04:30:30.052Z,89.10
2023-02-15T04:33:32.164Z,89.00
2023-02-15T04:36:34.161Z,88.40
2023-02-15T04:39:36.135Z,88.80
2023-02-15T04:42:38.516Z,87.80
2023-02-15T04:45:40.498Z,88.20
2023-02-15T04:48:42.549Z,87.80
2023-02-15T04:51:44.508Z,88.30
2023-02-15T04:54:46.989Z,88.30
2023-02-15T04:57:49.576Z,88.80
2023-02-15T05:00:51.830Z,88.60
2023-02-15T05:03:53.931Z,88.80
2023-02-15T05:06:56.279Z,88.80
2023-02-15T05:09:58.219Z,88.80
2023-02-15T05:13:00.250Z,88.40
2023-02-15T05:16:02.591Z,88.80
2023-02-15T05:19:05.517Z,88.20
2023-02-15T05:22:07.427Z,88.20
2023-02-15T05:25:10.303Z,89.20
2023-02-15T05:28:12.525Z,88.80
2023-02-15T05:31:18.090Z,89.70
2023-02-15T05:34:20.282Z,89.50
2023-02-15T05:37:22.390Z,88.90
2023-02-15T05:40:24.482Z,88.80
2023-02-15T05:43:27.069Z,88.50
2023-02-15T05:46:29.152Z,89.40
2023-02-15T05:49:31.122Z,88.70
2023-02-15T05:52:35.608Z,88.80
2023-02-15T05:55:43.192Z,88.10
2023-02-15T05:58:45.218Z,88.00
2023-02-15T06:01:47.184Z,88.50
2023-02-15T06:04:49.276Z,88.80
2023-02-15T06:07:51.471Z,88.80
2023-02-15T06:10:53.668Z,89.20
2023-02-15T06:13:55.993Z,89.30
2023-02-15T06:16:58.064Z,88.70
2023-02-15T06:20:00.104Z,88.10
2023-02-15T06:26:15.011Z,88.70
2023-02-15T06:29:17.667Z,88.00
2023-02-15T06:32:19.614Z,87.90
2023-02-15T06:35:21.686Z,87.30
2023-02-15T06:38:24.032Z,88.10
2023-02-15T06:41:26.135Z,88.50
2023-02-15T06:44:28.214Z,88.90
2023-02-15T06:47:30.452Z,88.40
2023-02-15T06:50:32.694Z,88.30
2023-02-15T06:53:34.877Z,89.10
2023-02-15T06:56:36.975Z,89.00
2023-02-15T06:59:39.015Z,88.80
2023-02-15T07:02:41.296Z,88.70
2023-02-15T07:05:43.925Z,89.70
2023-02-15T07:08:45.996Z,90.20
2023-02-15T07:11:48.223Z,90.00
2023-02-15T07:14:50.221Z,89.40
2023-02-15T07:17:52.305Z,89.70
2023-02-15T07:20:56.465Z,88.80
2023-02-15T07:24:01.353Z,89.50
2023-02-15T07:27:03.440Z,89.00
2023-02-15T07:30:07.394Z,89.00
2023-02-15T07:33:09.435Z,88.90
2023-02-15T07:36:11.746Z,88.70
2023-02-15T07:39:13.800Z,88.80
2023-02-15T07:42:18.027Z,89.20
2023-02-15T07:45:20.454Z,88.70
2023-02-15T07:48:24.866Z,89.00
2023-02-15T07:51:26.953Z,88.20
2023-02-15T07:54:29.258Z,88.80
2023-02-15T07:57:31.277Z,89.20
2023-02-15T08:00:33.300Z,89.20
2023-02-15T08:03:35.337Z,89.00
2023-02-15T08:06:38.161Z,88.30
2023-02-15T08:09:40.182Z,88.20
2023-02-15T08:12:42.417Z,88.30
2023-02-15T08:15:53.132Z,87.60
2023-02-15T08:18:56.235Z,87.50
2023-02-15T08:21:59.873Z,87.90
2023-02-15T08:25:01.907Z,87.70
2023-02-15T08:28:03.973Z,87.80
2023-02-15T08:31:10.745Z,88.20
2023-02-15T08:34:16.865Z,88.20
2023-02-15T08:37:18.873Z,88.00
2023-02-15T08:40:20.890Z,87.50
2023-02-15T08:43:22.917Z,87.50
2023-02-15T08:46:28.821Z,87.20
2023-02-15T08:49:30.973Z,87.70
2023-02-15T08:52:33.030Z,87.60
2023-02-15T08:55:35.508Z,87.00
2023-02-15T08:58:38.335Z,86.60
2023-02-15T09:01:40.773Z,86.80
2023-02-15T09:04:42.933Z,86.90
2023-02-15T09:07:44.888Z,87.10
2023-02-15T09:10:46.891Z,87.40
2023-02-15T09:13:49.458Z,88.10
2023-02-15T09:16:53.346Z,88.20
2023-02-15T09:19:55.403Z,87.80
2023-02-15T09:22:59.900Z,87.90
2023-02-15T09:26:10.521Z,87.90
2023-02-15T09:29:14.532Z,87.80
2023-02-15T09:32:16.579Z,87.80
2023-02-15T09:35:18.692Z,87.70
2023-02-15T09:38:20.721Z,88.20
2023-02-15T09:41:37.519Z,88.40
2023-02-15T09:45:10.965Z,87.70
2023-02-15T09:48:30.921Z,87.90
2023-02-15T09:51:44.901Z,87.70
2023-02-15T09:55:01.970Z,87.40
2023-02-15T09:58:18.946Z,87.10
2023-02-15T10:01:24.158Z,87.10
2023-02-15T10:04:54.964Z,87.60
2023-02-15T10:08:35.849Z,88.00
2023-02-15T10:12:08.055Z,87.30
2023-02-15T10:15:29.366Z,87.40
2023-02-15T10:18:53.144Z,87.60
2023-02-15T10:21:55.514Z,87.00
2023-02-15T10:25:16.053Z,87.20
2023-02-15T10:28:20.697Z,85.80
2023-02-15T10:31:28.135Z,85.70
2023-02-15T10:34:45.130Z,86.30
2023-02-15T10:38:19.105Z,86.30
2023-02-15T10:41:48.841Z,85.30
2023-02-15T10:45:05.735Z,85.30
2023-02-15T10:48:28.901Z,85.00
2023-02-15T10:51:52.665Z,85.70
2023-02-15T10:55:17.248Z,85.50
2023-02-15T10:58:25.373Z,85.40
2023-02-15T11:01:38.064Z,85.70
2023-02-15T11:05:12.277Z,84.60
2023-02-15T11:08:14.562Z,84.50
2023-02-15T11:11:35.655Z,85.10
2023-02-15T11:14:56.866Z,84.60
2023-02-15T11:18:21.856Z,84.70
2023-02-15T11:21:30.650Z,84.20
2023-02-15T11:24:38.161Z,85.00
2023-02-15T11:27:43.219Z,84.70
2023-02-15T11:30:50.869Z,83.60
2023-02-15T11:33:58.607Z,83.60
2023-02-15T11:37:08.256Z,84.40
2023-02-15T11:40:24.699Z,84.70
2023-02-15T11:43:57.115Z,83.40
2023-02-15T11:46:59.466Z,83.00
2023-02-15T11:50:02.281Z,83.10
2023-02-15T12:03:18.575Z,81.70
2023-02-15T12:06:35.241Z,83.10
2023-02-15T12:09:58.161Z,83.40
2023-02-15T12:13:18.940Z,83.00
2023-02-15T12:16:24.307Z,83.10
2023-02-15T12:19:41.046Z,82.50
2023-02-15T12:23:07.319Z,83.20
2023-02-15T12:26:09.703Z,82.90
2023-02-15T12:29:18.600Z,83.20
2023-02-15T12:32:25.406Z,82.90
2023-02-15T12:35:32.751Z,82.40
2023-02-15T12:38:34.658Z,82.30
2023-02-15T12:41:38.869Z,82.20
2023-02-15T12:45:01.014Z,81.40
2023-02-15T12:48:10.848Z,82.00
2023-02-15T12:51:16.374Z,81.80
2023-02-15T12:54:25.771Z,82.00
2023-02-15T12:57:31.978Z,81.60
2023-02-15T13:00:34.070Z,81.90
2023-02-15T13:03:38.929Z,82.40
2023-02-15T13:06:49.204Z,81.40
2023-02-15T13:09:51.577Z,81.40
2023-02-15T13:12:53.908Z,81.00
2023-02-15T13:16:12.450Z,81.40
2023-02-15T13:19:18.561Z,80.50
2023-02-15T13:22:32.253Z,80.30
2023-02-15T13:25:48.235Z,80.00
2023-02-15T13:28:55.267Z,80.30
2023-02-15T13:32:03.669Z,79.00
2023-02-15T13:35:06.844Z,79.30
2023-02-15T13:38:16.995Z,80.30
2023-02-15T13:42:00.468Z,79.60
2023-02-15T13:45:28.020Z,79.70
2023-02-15T13:48:50.568Z,79.50
2023-02-15T13:52:02.585Z,79.70
2023-02-15T13:55:23.379Z,79.20
2023-02-15T13:58:56.647Z,79.10
2023-02-15T14:02:10.419Z,78.20
2023-02-15T14:05:31.107Z,77.90
2023-02-15T14:09:19.174Z,78.00
2023-02-15T14:12:26.804Z,78.40
2023-02-15T14:15:49.855Z,77.80
2023-02-15T14:19:19.263Z,77.70
2023-02-15T14:22:27.352Z,78.00
2023-02-15T14:25:46.721Z,78.60
2023-02-15T14:29:01.864Z,77.70
2023-02-15T14:32:12.879Z,77.50
2023-02-15T14:35:17.510Z,78.20
2023-02-15T14:38:51.339Z,77.80
2023-02-15T14:41:59.048Z,78.90
2023-02-15T14:45:17.287Z,79.40
2023-02-15T14:48:39.744Z,79.00
2023-02-15T14:51:41.810Z,78.80
2023-02-15T14:54:43.608Z,79.10
2023-02-15T14:57:59.354Z,79.50
2023-02-15T15:01:09.375Z,79.20
2023-02-15T15:04:24.290Z,78.80
2023-02-15T15:07:29.681Z,79.20
2023-02-15T15:10:46.242Z,80.10
2023-02-15T15:14:00.445Z,80.00
2023-02-15T15:17:04.878Z,79.40
2023-02-15T15:20:11.874Z,78.50
2023-02-15T15:23:16.796Z,78.90
2023-02-15T15:26:45.263Z,78.90
2023-02-15T15:29:47.132Z,78.20
2023-02-15T15:32:55.039Z,78.00
2023-02-15T15:36:21.545Z,77.90
2023-02-15T15:39:43.762Z,77.50
2023-02-15T15:43:23.217Z,76.90
2023-02-15T15:46:54.263Z,77.10
2023-02-15T15:49:58.361Z,76.30
2023-02-15T15:53:02.539Z,76.60
2023-02-15T15:56:11.685Z,77.00
2023-02-15T15:59:25.952Z,76.80
2023-02-15T16:02:28.554Z,77.00
2023-02-15T16:05:40.627Z,76.90
2023-02-15T16:08:44.969Z,77.10
2023-02-15T16:11:49.492Z,77.80
2023-02-15T16:14:58.581Z,78.20
2023-02-15T16:18:01.378Z,78.30
2023-02-15T16:21:03.572Z,78.30
2023-02-15T16:24:22.830Z,78.70
2023-02-15T16:27:36.459Z,78.60
2023-02-15T16:30:45.383Z,78.80
2023-02-15T16:33:47.341Z,78.80
2023-02-15T16:36:49.218Z,78.80
2023-02-15T16:39:51.641Z,79.50
2023-02-15T16:43:01.084Z,79.40
2023-02-15T16:46:11.489Z,79.80
2023-02-15T16:49:20.737Z,80.10
2023-02-15T16:52:27.687Z,80.30
2023-02-15T16:55:38.198Z,80.60
2023-02-15T16:58:50.270Z,80.90
2023-02-15T17:05:09.273Z,80.60
2023-02-15T17:08:30.141Z,80.70
2023-02-15T17:11:43.353Z,80.70
2023-02-15T17:14:45.281Z,80.80
2023-02-15T17:17:47.697Z,80.90
2023-02-15T17:20:53.817Z,81.30
2023-02-15T17:24:00.256Z,81.50
2023-02-15T17:27:07.218Z,81.70
2023-02-15T17:30:25.308Z,82.50
2023-02-15T17:33:38.420Z,81.20
2023-02-15T17:36:58.779Z,81.80
2023-02-15T17:40:06.627Z,82.20
2023-02-15T17:43:08.478Z,82.50
2023-02-15T17:46:15.656Z,82.30
2023-02-15T17:49:25.257Z,82.20
2023-02-15T17:52:30.481Z,82.30
2023-02-15T17:55:32.392Z,81.70
2023-02-15T17:58:34.364Z,82.00
2023-02-15T18:01:41.899Z,81.80
2023-02-15T18:04:43.765Z,82.20
2023-02-15T18:07:45.671Z,82.20
2023-02-15T18:10:47.577Z,82.10
2023-02-15T18:13:49.454Z,82.20
2023-02-15T18:16:51.420Z,83.20
2023-02-15T18:20:01.766Z,83.10
2023-02-15T18:23:06.167Z,83.10
2023-02-15T18:26:20.698Z,83.00
2023-02-15T18:29:22.659Z,82.80
2023-02-15T18:32:35.703Z,83.30
2023-02-15T18:35:41.401Z,83.90
2023-02-15T18:38:45.728Z,83.30
2023-02-15T18:41:47.819Z,83.20
2023-02-15T18:44:53.550Z,83.10
2023-02-15T18:47:55.976Z,83.40
2023-02-15T18:50:58.568Z,83.30
2023-02-15T18:54:01.210Z,84.20
2023-02-15T18:57:09.411Z,83.60
2023-02-15T19:00:19.535Z,83.50
2023-02-15T19:03:21.443Z,83.50
2023-02-15T19:06:23.709Z,83.30
2023-02-15T19:09:25.812Z,83.60
2023-02-15T19:12:31.216Z,83.20
2023-02-15T19:15:33.254Z,82.90
2023-02-15T19:18:41.180Z,83.10
2023-02-15T19:21:43.403Z,82.70
2023-02-15T19:24:48.034Z,82.90
2023-02-15T19:27:50.569Z,82.60
2023-02-15T19:30:52.626Z,83.50
2023-02-15T19:33:54.631Z,84.00
2023-02-15T19:36:57.098Z,83.80
2023-02-15T19:40:00.451Z,84.00
2023-02-15T19:43:03.814Z,84.20
2023-02-15T19:46:06.322Z,83.90
2023-02-15T19:49:10.632Z,83.80
2023-02-15T19:52:18.202Z,83.60
2023-02-15T19:55:33.517Z,83.60
2023-02-15T19:58:36.090Z,83.90
2023-02-15T20:01:41.244Z,83.70
2023-02-15T20:04:43.375Z,83.00
2023-02-15T20:07:48.591Z,83.90
2023-02-15T20:10:51.111Z,83.60
2023-02-15T20:14:12.125Z,83.00
2023-02-15T20:17:14.493Z,83.30
2023-02-15T20:20:25.624Z,84.20
2023-02-15T20:23:31.759Z,84.20
2023-02-15T20:26:34.654Z,83.90
2023-02-15T20:29:36.899Z,83.50
2023-02-15T20:32:39.122Z,83.60
2023-02-15T20:35:46.679Z,83.80
2023-02-15T20:38:49.786Z,84.70
2023-02-15T20:41:51.836Z,85.50
2023-02-15T20:44:53.856Z,86.10
2023-02-15T20:48:02.410Z,86.80
2023-02-15T20:51:09.253Z,87.50
2023-02-15T20:54:16.063Z,87.70
2023-02-15T20:57:18.069Z,87.90
2023-02-15T21:00:26.965Z,87.70
2023-02-15T21:03:29.357Z,87.50
2023-02-15T21:06:31.577Z,88.10
2023-02-15T21:09:34.031Z,88.50
2023-02-15T21:12:36.283Z,87.90
2023-02-15T21:15:39.976Z,89.20
2023-02-15T21:18:48.457Z,89.00
2023-02-15T21:21:53.262Z,89.10
2023-02-15T21:24:55.411Z,89.00
2023-02-15T21:27:57.458Z,89.10
2023-02-15T21:31:00.012Z,89.10
2023-02-15T21:34:02.074Z,89.10
2023-02-15T21:40:14.363Z,88.60
2023-02-15T21:43:20.946Z,88.90
2023-02-15T21:46:23.138Z,87.80
2023-02-15T21:49:25.196Z,87.40
2023-02-15T21:52:27.200Z,88.40
2023-02-15T21:55:31.465Z,88.00
2023-02-15T21:58:36.815Z,87.50
2023-02-15T22:01:45.917Z,87.50
2023-02-15T22:04:47.908Z,87.70
2023-02-15T22:07:50.003Z,87.40
2023-02-15T22:10:56.619Z,87.10
2023-02-15T22:13:58.621Z,86.80
2023-02-15T22:17:00.704Z,87.90
2023-02-15T22:20:02.798Z,87.90
2023-02-15T22:23:07.521Z,88.00
2023-02-15T22:26:23.122Z,88.20
2023-02-15T22:29:25.168Z,88.10
2023-02-15T22:32:27.734Z,87.60
2023-02-15T22:35:32.828Z,88.90
2023-02-15T22:38:34.806Z,88.80
2023-02-15T22:41:36.773Z,88.70
2023-02-15T22:44:43.192Z,89.40
2023-02-15T22:47:47.083Z,88.40
2023-02-15T22:50:49.304Z,88.60
2023-02-15T22:53:51.775Z,88.70
2023-02-15T22:56:54.167Z,88.80
2023-02-15T22:59:57.128Z,88.50
2023-02-15T23:02:59.218Z,88.30
2023-02-15T23:06:01.303Z,88.30
2023-02-15T23:09:03.756Z,88.70
2023-02-15T23:12:25.003Z,88.40
2023-02-15T23:15:27.374Z,87.90
2023-02-15T23:18:39.838Z,88.10
2023-02-15T23:21:43.090Z,88.20
2023-02-15T23:24:50.488Z,89.00
2023-02-15T23:27:52.505Z,89.00
2023-02-15T23:30:55.229Z,88.80
2023-02-15T23:33:59.092Z,89.20
2023-02-15T23:37:01.232Z,89.20
2023-02-15T23:40:03.698Z,89.30
2023-02-15T23:43:07.094Z,89.50
2023-02-15T23:46:20.391Z,89.60
2023-02-15T23:49:23.434Z,89.20
2023-02-15T23:52:25.481Z,89.30
2023-02-15T23:55:36.498Z,89.20
2023-02-15T23:58:41.520Z,90.10
